createdAt,value
2023-04-27T00:01:54.105Z,13.90
2023-04-27T00:06:55.649Z,13.73
2023-04-27T00:11:57.093Z,12.65
2023-04-27T00:16:58.494Z,11.50
2023-04-27T00:22:00.509Z,13.15
2023-04-27T00:27:03.351Z,12.70
2023-04-27T00:32:04.889Z,11.10
2023-04-27T00:37:06.506Z,13.93
2023-04-27T00:42:11.593Z,13.00
2023-04-27T00:47:13.153Z,12.50
2023-04-27T00:52:14.663Z,12.63
2023-04-27T00:57:16.455Z,12.18
2023-04-27T01:02:18.104Z,14.38
2023-04-27T01:07:19.610Z,13.93
2023-04-27T01:12:21.114Z,15.70
2023-04-27T01:17:22.641Z,12.02
2023-04-27T01:22:24.160Z,13.18
2023-04-27T01:27:25.768Z,13.02
2023-04-27T01:32:27.278Z,12.82
2023-04-27T01:37:29.237Z,12.70
2023-04-27T01:42:31.019Z,11.05
2023-04-27T01:47:32.843Z,12.27
2023-04-27T01:52:34.381Z,12.82
2023-04-27T01:57:35.859Z,9.85
2023-04-27T02:02:37.456Z,12.90
2023-04-27T02:07:39.034Z,11.43
2023-04-27T02:12:40.712Z,14.15
2023-04-27T02:17:42.425Z,12.25
2023-04-27T02:22:44.537Z,14.13
2023-04-27T02:27:46.640Z,13.68
2023-04-27T02:32:48.601Z,11.52
2023-04-27T02:37:50.226Z,13.30
2023-04-27T02:42:52.006Z,14.98
2023-04-27T02:47:53.455Z,15.23
2023-04-27T02:52:55.855Z,14.80
2023-04-27T02:57:57.283Z,11.68
2023-04-27T03:02:58.849Z,10.55
2023-04-27T03:08:00.427Z,10.50
2023-04-27T03:13:01.869Z,10.77
2023-04-27T03:18:03.510Z,12.75
2023-04-27T03:23:05.936Z,13.85
2023-04-27T03:28:08.923Z,10.88
2023-04-27T03:33:10.471Z,9.68
2023-04-27T03:38:11.934Z,10.27
2023-04-27T03:43:13.376Z,11.43
2023-04-27T03:48:15.168Z,10.07
2023-04-27T03:53:16.724Z,7.57
2023-04-27T03:58:18.370Z,12.07
2023-04-27T04:03:20.211Z,9.20
2023-04-27T04:08:21.973Z,9.07
2023-04-27T04:13:23.432Z,8.70
2023-04-27T04:18:24.901Z,8.52
2023-04-27T04:23:27.289Z,10.93
2023-04-27T04:28:28.810Z,9.07
2023-04-27T04:33:31.560Z,8.38
2023-04-27T04:38:33.266Z,9.95
2023-04-27T04:43:34.773Z,9.60
2023-04-27T04:48:36.907Z,11.48
2023-04-27T04:53:38.423Z,7.07
2023-04-27T04:58:40.048Z,7.80
2023-04-27T05:03:41.717Z,9.77
2023-04-27T05:08:43.371Z,10.77
2023-04-27T05:13:44.928Z,8.07
2023-04-27T05:18:46.502Z,10.40
2023-04-27T05:23:48.044Z,10.63
2023-04-27T05:28:49.559Z,11.43
2023-04-27T05:33:51.053Z,7.68
2023-04-27T05:38:52.801Z,9.77
2023-04-27T05:43:55.545Z,9.48
2023-04-27T05:48:57.469Z,12.15
2023-04-27T05:53:59.961Z,8.68
2023-04-27T05:59:02.657Z,9.75
2023-04-27T06:04:04.856Z,12.57
2023-04-27T06:09:06.588Z,8.10
2023-04-27T06:14:08.085Z,9.45
2023-04-27T06:19:09.651Z,9.85
2023-04-27T06:24:11.104Z,8.55
2023-04-27T06:29:12.770Z,9.25
2023-04-27T06:34:14.302Z,8.93
2023-04-27T06:39:16.271Z,8.65
2023-04-27T06:44:18.107Z,8.07
2023-04-27T06:49:19.620Z,10.35
2023-04-27T06:54:21.208Z,7.57
2023-04-27T06:59:22.836Z,9.35
2023-04-27T07:04:24.713Z,13.98
2023-04-27T07:09:27.790Z,8.52
2023-04-27T07:14:29.616Z,7.72
2023-04-27T07:19:32.114Z,11.43
2023-04-27T07:24:33.569Z,8.57
2023-04-27T07:29:35.417Z,8.45
2023-04-27T07:34:51.889Z,9.18
2023-04-27T07:39:54.857Z,6.20
2023-04-27T07:44:57.324Z,8.35
2023-04-27T07:49:58.825Z,6.63
2023-04-27T07:55:00.566Z,10.18
2023-04-27T08:00:04.587Z,8.48
2023-04-27T08:05:06.701Z,7.53
2023-04-27T08:10:08.907Z,7.85
2023-04-27T08:15:10.720Z,8.35
2023-04-27T08:20:12.346Z,9.20
2023-04-27T08:25:13.854Z,7.32
2023-04-27T08:30:15.546Z,10.10
2023-04-27T08:35:17.312Z,7.72
2023-04-27T08:40:19.975Z,8.60
2023-04-27T08:45:22.323Z,8.10
2023-04-27T08:50:24.446Z,8.35
2023-04-27T08:55:26.004Z,10.82
2023-04-27T09:00:27.767Z,7.38
2023-04-27T09:05:29.531Z,8.48
2023-04-27T09:10:31.496Z,10.35
2023-04-27T09:15:41.268Z,7.97
2023-04-27T09:25:44.145Z,7.57
2023-04-27T09:30:51.659Z,6.63
2023-04-27T09:35:53.593Z,8.63
2023-04-27T09:40:55.649Z,10.65
2023-04-27T09:45:57.749Z,7.70
2023-04-27T09:50:59.341Z,8.13
2023-04-27T09:56:00.950Z,10.18
2023-04-27T10:01:05.159Z,7.65
2023-04-27T10:06:25.163Z,11.05
2023-04-27T10:16:27.935Z,7.90
2023-04-27T10:21:30.959Z,9.32
2023-04-27T10:26:33.493Z,8.18
2023-04-27T10:31:35.276Z,10.32
2023-04-27T10:36:41.033Z,10.48
2023-04-27T10:42:09.154Z,10.25
2023-04-27T10:47:17.342Z,8.85
2023-04-27T10:52:18.835Z,10.40
2023-04-27T10:57:20.602Z,11.70
2023-04-27T11:02:34.755Z,10.60
2023-04-27T11:07:36.562Z,11.70
2023-04-27T11:12:40.972Z,7.90
2023-04-27T11:17:42.548Z,7.43
2023-04-27T11:22:45.973Z,8.63
2023-04-27T11:27:47.412Z,8.40
2023-04-27T11:32:49.527Z,9.27
2023-04-27T11:37:57.033Z,9.60
2023-04-27T11:42:59.382Z,9.10
2023-04-27T11:48:01.055Z,12.77
2023-04-27T11:53:03.238Z,8.48
2023-04-27T11:58:04.775Z,11.02
2023-04-27T12:03:06.421Z,9.57
2023-04-27T12:08:08.024Z,10.85
2023-04-27T12:13:09.441Z,10.23
2023-04-27T12:18:12.792Z,8.90
2023-04-27T12:23:14.383Z,8.93
2023-04-27T12:28:19.179Z,8.25
2023-04-27T12:33:20.804Z,10.73
2023-04-27T12:38:22.588Z,8.07
2023-04-27T12:43:23.984Z,10.30
2023-04-27T12:48:26.868Z,9.60
2023-04-27T12:53:28.680Z,8.90
2023-04-27T12:58:30.273Z,10.15
2023-04-27T13:03:32.083Z,8.68
2023-04-27T13:08:33.817Z,11.25
2023-04-27T13:13:35.834Z,9.63
2023-04-27T13:18:37.347Z,10.25
2023-04-27T13:23:38.745Z,11.45
2023-04-27T13:28:40.731Z,10.40
2023-04-27T13:33:43.146Z,11.75
2023-04-27T13:38:45.814Z,8.07
2023-04-27T13:43:47.475Z,8.65
2023-04-27T13:48:48.936Z,12.75
2023-04-27T13:53:50.684Z,8.07
2023-04-27T13:58:52.240Z,13.18
2023-04-27T14:03:53.677Z,10.05
2023-04-27T14:08:55.791Z,9.82
2023-04-27T14:13:58.201Z,9.75
2023-04-27T14:18:59.593Z,10.55
2023-04-27T14:24:01.041Z,11.45
2023-04-27T14:29:02.481Z,10.23
2023-04-27T14:34:04.019Z,9.80
2023-04-27T14:39:06.834Z,11.35
2023-04-27T14:44:08.808Z,9.13
2023-04-27T14:49:10.266Z,9.32
2023-04-27T14:54:11.967Z,12.43
2023-04-27T14:59:13.561Z,12.18
2023-04-27T15:04:15.198Z,10.65
2023-04-27T15:09:16.766Z,14.93
2023-04-27T15:14:19.160Z,11.32
2023-04-27T15:19:20.787Z,9.82
2023-04-27T15:24:22.377Z,11.82
2023-04-27T15:29:23.824Z,11.10
2023-04-27T20:27:10.770Z,13.55
2023-04-27T20:32:12.342Z,14.25
2023-04-27T20:37:13.803Z,13.00
2023-04-27T20:42:15.187Z,13.65
2023-04-27T20:47:16.515Z,14.75
2023-04-27T20:52:17.923Z,15.00
2023-04-27T20:57:19.299Z,12.65
2023-04-27T21:02:20.787Z,14.50
2023-04-27T21:07:22.358Z,15.05
2023-04-27T21:12:23.821Z,13.98
2023-04-27T21:17:26.354Z,15.15
2023-04-27T21:22:27.837Z,13.57
2023-04-27T21:27:29.344Z,16.73
2023-04-27T21:32:30.873Z,15.40
2023-04-27T21:37:32.311Z,13.98
2023-04-27T21:42:34.023Z,14.75
2023-04-27T21:47:35.673Z,15.38
2023-04-27T21:52:37.293Z,13.90
2023-04-27T21:57:38.753Z,13.18
2023-04-27T22:02:42.431Z,12.98
2023-04-27T22:07:45.902Z,13.93
2023-04-27T22:12:47.382Z,20.00
2023-04-27T22:17:49.821Z,13.80
2023-04-27T22:22:51.342Z,16.48
2023-04-27T22:27:52.785Z,13.70
2023-04-27T22:32:54.360Z,14.80
2023-04-27T22:37:57.367Z,16.00
2023-04-27T22:42:58.968Z,15.27
2023-04-27T22:48:00.423Z,15.02
2023-04-27T22:53:01.987Z,15.77
2023-04-27T22:58:03.375Z,12.45
2023-04-27T23:03:05.149Z,14.88
2023-04-27T23:08:06.825Z,14.00
2023-04-27T23:13:11.286Z,17.02
2023-04-27T23:18:12.825Z,14.48
2023-04-27T23:23:14.533Z,16.92
2023-04-27T23:28:15.974Z,12.88
2023-04-27T23:33:17.365Z,16.52
2023-04-27T23:38:18.773Z,16.23
2023-04-27T23:43:20.277Z,15.13
2023-04-27T23:48:22.163Z,14.38
2023-04-27T23:53:23.753Z,15.43
2023-04-27T23:58:26.149Z,17.40
